sensor_id;sensor_type;location;lat;lon;timestamp;P1;durP1;ratioP1;P2;durP2;ratioP2
10511;SDS011;5304;48.604;2.096;2023-04-03T00:02:44;13.17;;;9.83;;
10511;SDS011;5304;48.604;2.096;2023-04-03T00:05:29;14.20;;;9.63;;
10511;SDS011;5304;48.604;2.096;2023-04-03T00:08:13;15.17;;;9.70;;
10511;SDS011;5304;48.604;2.096;2023-04-03T00:10:58;15.80;;;11.17;;
10511;SDS011;5304;48.604;2.096;2023-04-03T00:13:43;18.30;;;11.07;;
10511;SDS011;5304;48.604;2.096;2023-04-03T00:16:29;15.03;;;9.83;;
10511;SDS011;5304;48.604;2.096;2023-04-03T00:19:14;19.57;;;11.43;;
10511;SDS011;5304;48.604;2.096;2023-04-03T00:21:59;16.13;;;11.07;;
10511;SDS011;5304;48.604;2.096;2023-04-03T00:24:43;14.80;;;10.77;;
10511;SDS011;5304;48.604;2.096;2023-04-03T00:27:27;15.53;;;10.90;;
10511;SDS011;5304;48.604;2.096;2023-04-03T00:30:14;17.77;;;12.30;;
10511;SDS011;5304;48.604;2.096;2023-04-03T00:33:00;17.70;;;10.87;;
10511;SDS011;5304;48.604;2.096;2023-04-03T00:35:45;20.27;;;11.53;;
10511;SDS011;5304;48.604;2.096;2023-04-03T00:38:29;15.80;;;10.90;;
10511;SDS011;5304;48.604;2.096;2023-04-03T00:41:14;17.67;;;11.43;;
10511;SDS011;5304;48.604;2.096;2023-04-03T00:43:59;17.20;;;12.07;;
10511;SDS011;5304;48.604;2.096;2023-04-03T00:46:44;16.97;;;11.37;;
10511;SDS011;5304;48.604;2.096;2023-04-03T00:49:28;15.10;;;11.07;;
10511;SDS011;5304;48.604;2.096;2023-04-03T00:52:14;17.57;;;10.07;;
10511;SDS011;5304;48.604;2.096;2023-04-03T00:55:03;13.23;;;10.37;;
10511;SDS011;5304;48.604;2.096;2023-04-03T00:57:50;16.07;;;10.70;;
10511;SDS011;5304;48.604;2.096;2023-04-03T01:00:37;13.17;;;9.87;;
10511;SDS011;5304;48.604;2.096;2023-04-03T01:03:26;14.70;;;9.87;;
10511;SDS011;5304;48.604;2.096;2023-04-03T01:06:10;13.00;;;9.97;;
10511;SDS011;5304;48.604;2.096;2023-04-03T01:08:56;17.67;;;11.07;;
10511;SDS011;5304;48.604;2.096;2023-04-03T01:11:40;15.37;;;10.07;;
10511;SDS011;5304;48.604;2.096;2023-04-03T01:14:25;18.30;;;12.13;;
10511;SDS011;5304;48.604;2.096;2023-04-03T01:17:26;18.47;;;11.87;;
10511;SDS011;5304;48.604;2.096;2023-04-03T01:23:51;21.27;;;12.80;;
10511;SDS011;5304;48.604;2.096;2023-04-03T01:26:34;18.53;;;12.70;;
10511;SDS011;5304;48.604;2.096;2023-04-03T01:29:19;17.37;;;13.03;;
10511;SDS011;5304;48.604;2.096;2023-04-03T01:32:04;19.77;;;12.60;;
10511;SDS011;5304;48.604;2.096;2023-04-03T01:34:48;19.10;;;11.80;;
10511;SDS011;5304;48.604;2.096;2023-04-03T01:37:33;19.43;;;12.93;;
10511;SDS011;5304;48.604;2.096;2023-04-03T01:40:17;18.37;;;12.67;;
10511;SDS011;5304;48.604;2.096;2023-04-03T01:43:02;19.10;;;12.57;;
10511;SDS011;5304;48.604;2.096;2023-04-03T01:45:46;19.60;;;12.10;;
10511;SDS011;5304;48.604;2.096;2023-04-03T01:48:33;18.63;;;11.83;;
10511;SDS011;5304;48.604;2.096;2023-04-03T01:51:17;19.37;;;11.97;;
10511;SDS011;5304;48.604;2.096;2023-04-03T01:54:02;20.13;;;11.83;;
10511;SDS011;5304;48.604;2.096;2023-04-03T01:56:47;22.17;;;13.10;;
10511;SDS011;5304;48.604;2.096;2023-04-03T01:59:31;20.23;;;12.30;;
10511;SDS011;5304;48.604;2.096;2023-04-03T02:02:16;21.93;;;13.33;;
10511;SDS011;5304;48.604;2.096;2023-04-03T02:05:00;19.07;;;12.23;;
10511;SDS011;5304;48.604;2.096;2023-04-03T02:07:45;20.97;;;13.07;;
10511;SDS011;5304;48.604;2.096;2023-04-03T02:10:29;19.27;;;12.43;;
10511;SDS011;5304;48.604;2.096;2023-04-03T02:13:14;20.87;;;12.83;;
10511;SDS011;5304;48.604;2.096;2023-04-03T02:15:59;21.13;;;12.10;;
10511;SDS011;5304;48.604;2.096;2023-04-03T02:18:49;20.50;;;13.23;;
10511;SDS011;5304;48.604;2.096;2023-04-03T02:21:34;16.93;;;12.20;;
10511;SDS011;5304;48.604;2.096;2023-04-03T02:24:19;17.33;;;10.83;;
10511;SDS011;5304;48.604;2.096;2023-04-03T02:27:03;22.73;;;12.93;;
10511;SDS011;5304;48.604;2.096;2023-04-03T02:29:48;21.23;;;12.37;;
10511;SDS011;5304;48.604;2.096;2023-04-03T02:32:32;21.17;;;13.00;;
10511;SDS011;5304;48.604;2.096;2023-04-03T02:35:16;22.50;;;13.10;;
10511;SDS011;5304;48.604;2.096;2023-04-03T02:38:01;20.43;;;13.10;;
10511;SDS011;5304;48.604;2.096;2023-04-03T02:40:45;22.33;;;13.00;;
10511;SDS011;5304;48.604;2.096;2023-04-03T02:43:30;18.87;;;13.00;;
10511;SDS011;5304;48.604;2.096;2023-04-03T02:46:14;22.83;;;13.50;;
10511;SDS011;5304;48.604;2.096;2023-04-03T02:48:59;18.63;;;12.77;;
10511;SDS011;5304;48.604;2.096;2023-04-03T02:51:44;22.57;;;12.47;;
10511;SDS011;5304;48.604;2.096;2023-04-03T02:54:29;22.77;;;11.93;;
10511;SDS011;5304;48.604;2.096;2023-04-03T02:57:14;19.23;;;12.40;;
10511;SDS011;5304;48.604;2.096;2023-04-03T02:59:58;20.70;;;12.77;;
10511;SDS011;5304;48.604;2.096;2023-04-03T03:02:43;20.93;;;11.37;;
10511;SDS011;5304;48.604;2.096;2023-04-03T03:05:28;18.77;;;12.40;;
10511;SDS011;5304;48.604;2.096;2023-04-03T03:08:13;18.37;;;12.50;;
10511;SDS011;5304;48.604;2.096;2023-04-03T03:10:57;17.70;;;11.67;;
10511;SDS011;5304;48.604;2.096;2023-04-03T03:13:42;19.00;;;12.63;;
10511;SDS011;5304;48.604;2.096;2023-04-03T03:16:26;17.90;;;12.43;;
10511;SDS011;5304;48.604;2.096;2023-04-03T03:19:10;19.77;;;13.23;;
10511;SDS011;5304;48.604;2.096;2023-04-03T03:21:56;20.33;;;13.33;;
10511;SDS011;5304;48.604;2.096;2023-04-03T03:24:41;21.73;;;12.50;;
10511;SDS011;5304;48.604;2.096;2023-04-03T03:27:25;21.80;;;13.07;;
10511;SDS011;5304;48.604;2.096;2023-04-03T03:30:10;21.43;;;12.83;;
10511;SDS011;5304;48.604;2.096;2023-04-03T03:32:55;18.70;;;12.37;;
10511;SDS011;5304;48.604;2.096;2023-04-03T03:35:40;21.67;;;12.63;;
10511;SDS011;5304;48.604;2.096;2023-04-03T03:38:25;20.83;;;12.77;;
10511;SDS011;5304;48.604;2.096;2023-04-03T03:41:10;19.27;;;13.70;;
10511;SDS011;5304;48.604;2.096;2023-04-03T03:43:55;24.83;;;13.53;;
10511;SDS011;5304;48.604;2.096;2023-04-03T03:46:40;23.47;;;12.87;;
10511;SDS011;5304;48.604;2.096;2023-04-03T03:49:24;24.43;;;12.97;;
10511;SDS011;5304;48.604;2.096;2023-04-03T03:52:08;21.97;;;13.33;;
10511;SDS011;5304;48.604;2.096;2023-04-03T03:54:54;18.40;;;12.67;;
10511;SDS011;5304;48.604;2.096;2023-04-03T03:57:38;20.93;;;12.50;;
10511;SDS011;5304;48.604;2.096;2023-04-03T04:00:23;22.70;;;13.30;;
10511;SDS011;5304;48.604;2.096;2023-04-03T04:03:07;21.33;;;13.80;;
10511;SDS011;5304;48.604;2.096;2023-04-03T04:05:55;20.10;;;12.70;;
10511;SDS011;5304;48.604;2.096;2023-04-03T04:08:39;26.13;;;14.17;;
10511;SDS011;5304;48.604;2.096;2023-04-03T04:11:24;22.40;;;14.20;;
10511;SDS011;5304;48.604;2.096;2023-04-03T04:14:09;21.83;;;13.67;;
10511;SDS011;5304;48.604;2.096;2023-04-03T04:16:56;21.93;;;14.03;;
10511;SDS011;5304;48.604;2.096;2023-04-03T04:19:40;22.97;;;14.33;;
10511;SDS011;5304;48.604;2.096;2023-04-03T04:22:25;20.70;;;12.77;;
10511;SDS011;5304;48.604;2.096;2023-04-03T04:25:09;17.60;;;12.03;;
10511;SDS011;5304;48.604;2.096;2023-04-03T04:27:54;19.97;;;12.53;;
10511;SDS011;5304;48.604;2.096;2023-04-03T04:30:38;18.83;;;13.63;;
10511;SDS011;5304;48.604;2.096;2023-04-03T04:33:23;18.37;;;12.83;;
10511;SDS011;5304;48.604;2.096;2023-04-03T04:36:07;21.67;;;13.30;;
10511;SDS011;5304;48.604;2.096;2023-04-03T04:38:52;27.77;;;13.40;;
10511;SDS011;5304;48.604;2.096;2023-04-03T04:41:36;20.37;;;13.20;;
10511;SDS011;5304;48.604;2.096;2023-04-03T04:44:21;21.20;;;13.27;;
10511;SDS011;5304;48.604;2.096;2023-04-03T04:47:05;22.33;;;13.03;;
10511;SDS011;5304;48.604;2.096;2023-04-03T04:49:50;18.00;;;12.50;;
10511;SDS011;5304;48.604;2.096;2023-04-03T04:52:34;18.70;;;12.73;;
10511;SDS011;5304;48.604;2.096;2023-04-03T04:55:19;16.90;;;11.87;;
10511;SDS011;5304;48.604;2.096;2023-04-03T04:58:03;16.00;;;11.50;;
10511;SDS011;5304;48.604;2.096;2023-04-03T05:00:48;17.97;;;12.27;;
10511;SDS011;5304;48.604;2.096;2023-04-03T05:03:33;15.73;;;10.87;;
10511;SDS011;5304;48.604;2.096;2023-04-03T05:06:17;16.90;;;10.93;;
10511;SDS011;5304;48.604;2.096;2023-04-03T05:09:02;16.30;;;10.53;;
10511;SDS011;5304;48.604;2.096;2023-04-03T05:11:46;16.93;;;10.63;;
10511;SDS011;5304;48.604;2.096;2023-04-03T05:14:30;16.47;;;10.93;;
10511;SDS011;5304;48.604;2.096;2023-04-03T05:17:15;16.07;;;10.60;;
10511;SDS011;5304;48.604;2.096;2023-04-03T05:19:59;14.87;;;10.23;;
10511;SDS011;5304;48.604;2.096;2023-04-03T05:22:44;15.33;;;10.67;;
10511;SDS011;5304;48.604;2.096;2023-04-03T05:25:28;15.53;;;10.07;;
10511;SDS011;5304;48.604;2.096;2023-04-03T05:28:13;16.20;;;10.60;;
10511;SDS011;5304;48.604;2.096;2023-04-03T05:30:58;16.20;;;9.87;;
10511;SDS011;5304;48.604;2.096;2023-04-03T05:33:43;16.47;;;10.97;;
10511;SDS011;5304;48.604;2.096;2023-04-03T05:36:28;16.83;;;10.20;;
10511;SDS011;5304;48.604;2.096;2023-04-03T05:39:12;14.87;;;10.37;;
10511;SDS011;5304;48.604;2.096;2023-04-03T05:41:56;15.73;;;10.90;;
10511;SDS011;5304;48.604;2.096;2023-04-03T05:44:41;13.07;;;9.17;;
10511;SDS011;5304;48.604;2.096;2023-04-03T05:47:25;15.67;;;10.33;;
10511;SDS011;5304;48.604;2.096;2023-04-03T05:50:10;15.33;;;10.20;;
10511;SDS011;5304;48.604;2.096;2023-04-03T05:52:55;16.03;;;9.57;;
10511;SDS011;5304;48.604;2.096;2023-04-03T05:55:42;13.43;;;9.23;;
10511;SDS011;5304;48.604;2.096;2023-04-03T05:58:26;15.50;;;10.07;;
10511;SDS011;5304;48.604;2.096;2023-04-03T06:01:11;15.03;;;10.27;;
10511;SDS011;5304;48.604;2.096;2023-04-03T06:03:55;17.13;;;9.90;;
10511;SDS011;5304;48.604;2.096;2023-04-03T06:06:46;15.70;;;10.00;;
10511;SDS011;5304;48.604;2.096;2023-04-03T06:09:32;14.73;;;9.40;;
10511;SDS011;5304;48.604;2.096;2023-04-03T06:12:18;14.47;;;9.70;;
10511;SDS011;5304;48.604;2.096;2023-04-03T06:15:03;16.20;;;9.40;;
10511;SDS011;5304;48.604;2.096;2023-04-03T06:17:48;12.40;;;8.87;;
10511;SDS011;5304;48.604;2.096;2023-04-03T06:20:32;15.43;;;9.73;;
10511;SDS011;5304;48.604;2.096;2023-04-03T06:23:17;13.93;;;9.27;;
10511;SDS011;5304;48.604;2.096;2023-04-03T06:26:02;15.97;;;9.57;;
10511;SDS011;5304;48.604;2.096;2023-04-03T06:28:46;12.17;;;9.43;;
10511;SDS011;5304;48.604;2.096;2023-04-03T06:31:31;12.70;;;9.10;;
10511;SDS011;5304;48.604;2.096;2023-04-03T06:34:16;12.40;;;8.83;;
10511;SDS011;5304;48.604;2.096;2023-04-03T06:37:01;12.97;;;8.53;;
10511;SDS011;5304;48.604;2.096;2023-04-03T06:39:46;11.97;;;9.03;;
10511;SDS011;5304;48.604;2.096;2023-04-03T06:42:31;13.17;;;8.27;;
10511;SDS011;5304;48.604;2.096;2023-04-03T06:45:15;12.40;;;8.17;;
10511;SDS011;5304;48.604;2.096;2023-04-03T06:47:59;12.57;;;8.63;;
10511;SDS011;5304;48.604;2.096;2023-04-03T06:50:44;13.87;;;8.53;;
10511;SDS011;5304;48.604;2.096;2023-04-03T06:53:29;12.20;;;8.63;;
10511;SDS011;5304;48.604;2.096;2023-04-03T06:56:13;13.97;;;8.73;;
10511;SDS011;5304;48.604;2.096;2023-04-03T06:58:58;13.63;;;7.90;;
10511;SDS011;5304;48.604;2.096;2023-04-03T07:01:43;12.90;;;8.57;;
10511;SDS011;5304;48.604;2.096;2023-04-03T07:04:27;10.60;;;7.97;;
10511;SDS011;5304;48.604;2.096;2023-04-03T07:07:12;11.30;;;8.37;;
10511;SDS011;5304;48.604;2.096;2023-04-03T07:09:56;13.30;;;8.60;;
10511;SDS011;5304;48.604;2.096;2023-04-03T07:12:41;9.47;;;7.63;;
10511;SDS011;5304;48.604;2.096;2023-04-03T07:15:25;12.30;;;8.43;;
10511;SDS011;5304;48.604;2.096;2023-04-03T07:18:10;12.30;;;8.43;;
10511;SDS011;5304;48.604;2.096;2023-04-03T07:20:54;10.30;;;7.57;;
10511;SDS011;5304;48.604;2.096;2023-04-03T07:23:39;11.03;;;7.70;;
10511;SDS011;5304;48.604;2.096;2023-04-03T07:26:24;14.40;;;8.37;;
10511;SDS011;5304;48.604;2.096;2023-04-03T07:29:09;12.87;;;7.87;;
10511;SDS011;5304;48.604;2.096;2023-04-03T07:31:54;11.50;;;7.83;;
10511;SDS011;5304;48.604;2.096;2023-04-03T07:34:39;12.73;;;8.37;;
10511;SDS011;5304;48.604;2.096;2023-04-03T07:37:24;11.87;;;7.97;;
10511;SDS011;5304;48.604;2.096;2023-04-03T07:40:09;12.07;;;8.37;;
10511;SDS011;5304;48.604;2.096;2023-04-03T07:42:53;11.03;;;7.67;;
10511;SDS011;5304;48.604;2.096;2023-04-03T07:45:40;11.03;;;8.50;;
10511;SDS011;5304;48.604;2.096;2023-04-03T07:48:25;11.47;;;8.17;;
10511;SDS011;5304;48.604;2.096;2023-04-03T07:51:10;12.17;;;8.80;;
10511;SDS011;5304;48.604;2.096;2023-04-03T07:53:54;11.83;;;8.20;;
10511;SDS011;5304;48.604;2.096;2023-04-03T07:56:39;13.03;;;7.97;;
10511;SDS011;5304;48.604;2.096;2023-04-03T07:59:24;11.27;;;7.40;;
10511;SDS011;5304;48.604;2.096;2023-04-03T08:02:11;10.93;;;7.50;;
10511;SDS011;5304;48.604;2.096;2023-04-03T08:04:56;10.83;;;7.80;;
10511;SDS011;5304;48.604;2.096;2023-04-03T08:07:40;10.83;;;7.53;;
10511;SDS011;5304;48.604;2.096;2023-04-03T08:10:25;9.20;;;7.33;;
10511;SDS011;5304;48.604;2.096;2023-04-03T08:13:09;10.50;;;7.73;;
10511;SDS011;5304;48.604;2.096;2023-04-03T08:15:54;9.67;;;7.40;;
10511;SDS011;5304;48.604;2.096;2023-04-03T08:18:40;10.33;;;7.07;;
10511;SDS011;5304;48.604;2.096;2023-04-03T08:21:25;10.10;;;7.37;;
10511;SDS011;5304;48.604;2.096;2023-04-03T08:24:09;9.37;;;6.67;;
10511;SDS011;5304;48.604;2.096;2023-04-03T08:26:54;10.13;;;7.37;;
10511;SDS011;5304;48.604;2.096;2023-04-03T08:29:39;9.43;;;7.00;;
10511;SDS011;5304;48.604;2.096;2023-04-03T08:32:24;9.37;;;7.17;;
10511;SDS011;5304;48.604;2.096;2023-04-03T08:35:08;9.33;;;6.97;;
10511;SDS011;5304;48.604;2.096;2023-04-03T08:37:54;8.87;;;7.07;;
10511;SDS011;5304;48.604;2.096;2023-04-03T08:40:39;8.97;;;6.90;;
10511;SDS011;5304;48.604;2.096;2023-04-03T08:46:19;7.07;;;6.13;;
10511;SDS011;5304;48.604;2.096;2023-04-03T08:49:10;6.27;;;5.63;;
10511;SDS011;5304;48.604;2.096;2023-04-03T08:52:17;7.77;;;5.83;;
10511;SDS011;5304;48.604;2.096;2023-04-03T08:58:15;5.57;;;4.90;;
10511;SDS011;5304;48.604;2.096;2023-04-03T09:01:19;5.50;;;4.90;;
10511;SDS011;5304;48.604;2.096;2023-04-03T09:04:10;6.37;;;3.80;;
10511;SDS011;5304;48.604;2.096;2023-04-03T09:06:59;6.00;;;4.37;;
10511;SDS011;5304;48.604;2.096;2023-04-03T09:09:51;5.33;;;4.47;;
10511;SDS011;5304;48.604;2.096;2023-04-03T09:12:44;5.67;;;4.20;;
10511;SDS011;5304;48.604;2.096;2023-04-03T09:15:34;4.63;;;3.83;;
10511;SDS011;5304;48.604;2.096;2023-04-03T09:18:20;5.33;;;4.37;;
10511;SDS011;5304;48.604;2.096;2023-04-03T09:21:15;5.87;;;5.27;;
10511;SDS011;5304;48.604;2.096;2023-04-03T09:24:05;6.97;;;4.73;;
10511;SDS011;5304;48.604;2.096;2023-04-03T09:26:53;8.73;;;4.13;;
10511;SDS011;5304;48.604;2.096;2023-04-03T09:29:45;5.83;;;4.20;;
10511;SDS011;5304;48.604;2.096;2023-04-03T09:32:31;5.77;;;3.77;;
10511;SDS011;5304;48.604;2.096;2023-04-03T09:35:31;5.03;;;4.40;;
10511;SDS011;5304;48.604;2.096;2023-04-03T09:38:18;3.77;;;3.43;;
10511;SDS011;5304;48.604;2.096;2023-04-03T09:43:57;3.83;;;3.23;;
10511;SDS011;5304;48.604;2.096;2023-04-03T09:46:41;5.23;;;3.90;;
10511;SDS011;5304;48.604;2.096;2023-04-03T09:49:26;4.20;;;3.80;;
10511;SDS011;5304;48.604;2.096;2023-04-03T09:52:22;5.93;;;3.80;;
10511;SDS011;5304;48.604;2.096;2023-04-03T09:55:13;4.80;;;3.60;;
10511;SDS011;5304;48.604;2.096;2023-04-03T09:58:00;4.33;;;3.43;;
10511;SDS011;5304;48.604;2.096;2023-04-03T10:00:53;6.27;;;4.00;;
10511;SDS011;5304;48.604;2.096;2023-04-03T10:03:42;4.27;;;3.83;;
10511;SDS011;5304;48.604;2.096;2023-04-03T10:06:31;3.80;;;3.50;;
10511;SDS011;5304;48.604;2.096;2023-04-03T10:09:23;6.50;;;4.03;;
10511;SDS011;5304;48.604;2.096;2023-04-03T10:12:09;4.93;;;3.43;;
10511;SDS011;5304;48.604;2.096;2023-04-03T10:14:58;4.47;;;3.30;;
10511;SDS011;5304;48.604;2.096;2023-04-03T10:17:50;4.60;;;3.40;;
10511;SDS011;5304;48.604;2.096;2023-04-03T10:20:40;5.20;;;2.87;;
10511;SDS011;5304;48.604;2.096;2023-04-03T10:24:11;3.87;;;3.47;;
10511;SDS011;5304;48.604;2.096;2023-04-03T10:36:18;4.27;;;3.80;;
10511;SDS011;5304;48.604;2.096;2023-04-03T10:39:30;4.00;;;3.57;;
10511;SDS011;5304;48.604;2.096;2023-04-03T10:42:36;6.63;;;4.27;;
10511;SDS011;5304;48.604;2.096;2023-04-03T10:45:38;4.43;;;4.03;;
10511;SDS011;5304;48.604;2.096;2023-04-03T10:58:31;4.27;;;3.20;;
10511;SDS011;5304;48.604;2.096;2023-04-03T11:01:20;4.97;;;3.83;;
10511;SDS011;5304;48.604;2.096;2023-04-03T11:04:08;4.23;;;3.67;;
10511;SDS011;5304;48.604;2.096;2023-04-03T11:09:50;3.97;;;3.60;;
10511;SDS011;5304;48.604;2.096;2023-04-03T11:12:54;4.33;;;3.80;;
10511;SDS011;5304;48.604;2.096;2023-04-03T11:15:54;4.00;;;3.60;;
10511;SDS011;5304;48.604;2.096;2023-04-03T11:19:03;4.23;;;3.73;;
10511;SDS011;5304;48.604;2.096;2023-04-03T11:21:47;5.43;;;3.20;;
10511;SDS011;5304;48.604;2.096;2023-04-03T11:24:37;5.60;;;3.90;;
10511;SDS011;5304;48.604;2.096;2023-04-03T11:27:37;4.30;;;3.90;;
10511;SDS011;5304;48.604;2.096;2023-04-03T11:39:20;5.00;;;3.83;;
10511;SDS011;5304;48.604;2.096;2023-04-03T11:57:44;4.37;;;3.97;;
10511;SDS011;5304;48.604;2.096;2023-04-03T12:00:51;5.20;;;4.03;;
10511;SDS011;5304;48.604;2.096;2023-04-03T12:12:22;4.60;;;3.87;;
10511;SDS011;5304;48.604;2.096;2023-04-03T12:29:46;5.60;;;3.37;;
10511;SDS011;5304;48.604;2.096;2023-04-03T12:33:11;4.60;;;4.00;;
10511;SDS011;5304;48.604;2.096;2023-04-03T12:36:04;4.40;;;3.90;;
10511;SDS011;5304;48.604;2.096;2023-04-03T12:45:20;4.27;;;3.10;;
10511;SDS011;5304;48.604;2.096;2023-04-03T12:48:12;3.73;;;3.30;;
10511;SDS011;5304;48.604;2.096;2023-04-03T12:51:00;4.07;;;3.50;;
10511;SDS011;5304;48.604;2.096;2023-04-03T12:53:46;3.60;;;3.03;;
10511;SDS011;5304;48.604;2.096;2023-04-03T12:56:32;3.90;;;2.90;;
10511;SDS011;5304;48.604;2.096;2023-04-03T13:02:12;3.70;;;3.30;;
10511;SDS011;5304;48.604;2.096;2023-04-03T13:05:07;3.50;;;3.20;;
10511;SDS011;5304;48.604;2.096;2023-04-03T13:08:05;3.70;;;3.40;;
10511;SDS011;5304;48.604;2.096;2023-04-03T13:11:03;3.27;;;2.93;;
10511;SDS011;5304;48.604;2.096;2023-04-03T13:13:57;3.17;;;2.67;;
10511;SDS011;5304;48.604;2.096;2023-04-03T13:16:58;3.87;;;3.47;;
10511;SDS011;5304;48.604;2.096;2023-04-03T13:19:53;4.40;;;2.93;;
10511;SDS011;5304;48.604;2.096;2023-04-03T13:22:48;3.80;;;2.83;;
10511;SDS011;5304;48.604;2.096;2023-04-03T13:25:42;3.57;;;3.10;;
10511;SDS011;5304;48.604;2.096;2023-04-03T13:28:29;2.80;;;2.60;;
10511;SDS011;5304;48.604;2.096;2023-04-03T13:31:18;4.33;;;2.70;;
10511;SDS011;5304;48.604;2.096;2023-04-03T13:34:12;3.80;;;3.03;;
10511;SDS011;5304;48.604;2.096;2023-04-03T13:37:00;5.70;;;3.17;;
10511;SDS011;5304;48.604;2.096;2023-04-03T13:39:55;3.17;;;2.97;;
10511;SDS011;5304;48.604;2.096;2023-04-03T13:43:06;5.70;;;2.90;;
10511;SDS011;5304;48.604;2.096;2023-04-03T13:48:55;3.73;;;2.83;;
10511;SDS011;5304;48.604;2.096;2023-04-03T13:51:41;6.83;;;3.30;;
10511;SDS011;5304;48.604;2.096;2023-04-03T13:54:29;3.87;;;2.87;;
10511;SDS011;5304;48.604;2.096;2023-04-03T13:57:16;5.00;;;3.07;;
10511;SDS011;5304;48.604;2.096;2023-04-03T14:00:18;5.03;;;2.60;;
10511;SDS011;5304;48.604;2.096;2023-04-03T14:03:30;2.77;;;2.20;;
10511;SDS011;5304;48.604;2.096;2023-04-03T14:06:25;5.20;;;3.00;;
10511;SDS011;5304;48.604;2.096;2023-04-03T14:09:09;5.27;;;2.50;;
10511;SDS011;5304;48.604;2.096;2023-04-03T14:11:55;3.27;;;2.63;;
10511;SDS011;5304;48.604;2.096;2023-04-03T14:14:44;4.37;;;2.83;;
10511;SDS011;5304;48.604;2.096;2023-04-03T14:17:30;3.83;;;3.10;;
10511;SDS011;5304;48.604;2.096;2023-04-03T14:20:19;4.43;;;2.90;;
10511;SDS011;5304;48.604;2.096;2023-04-03T14:23:05;3.57;;;3.07;;
10511;SDS011;5304;48.604;2.096;2023-04-03T14:25:49;4.27;;;2.90;;
10511;SDS011;5304;48.604;2.096;2023-04-03T14:28:34;4.60;;;3.07;;
10511;SDS011;5304;48.604;2.096;2023-04-03T14:31:19;6.50;;;3.27;;
10511;SDS011;5304;48.604;2.096;2023-04-03T14:34:04;3.37;;;3.07;;
10511;SDS011;5304;48.604;2.096;2023-04-03T14:36:49;4.00;;;2.80;;
10511;SDS011;5304;48.604;2.096;2023-04-03T14:39:34;4.17;;;2.83;;
10511;SDS011;5304;48.604;2.096;2023-04-03T14:42:20;5.77;;;3.03;;
10511;SDS011;5304;48.604;2.096;2023-04-03T14:45:12;3.60;;;3.20;;
10511;SDS011;5304;48.604;2.096;2023-04-03T14:47:58;3.33;;;2.90;;
10511;SDS011;5304;48.604;2.096;2023-04-03T14:50:43;3.73;;;3.30;;
10511;SDS011;5304;48.604;2.096;2023-04-03T14:53:27;4.20;;;3.63;;
10511;SDS011;5304;48.604;2.096;2023-04-03T14:56:23;3.50;;;3.20;;
10511;SDS011;5304;48.604;2.096;2023-04-03T14:59:12;4.77;;;3.10;;
10511;SDS011;5304;48.604;2.096;2023-04-03T15:01:57;4.00;;;2.90;;
10511;SDS011;5304;48.604;2.096;2023-04-03T15:04:42;2.73;;;2.53;;
10511;SDS011;5304;48.604;2.096;2023-04-03T15:07:27;7.70;;;3.13;;
10511;SDS011;5304;48.604;2.096;2023-04-03T15:10:18;3.03;;;2.80;;
10511;SDS011;5304;48.604;2.096;2023-04-03T15:13:04;4.67;;;2.80;;
10511;SDS011;5304;48.604;2.096;2023-04-03T15:15:49;2.47;;;2.27;;
10511;SDS011;5304;48.604;2.096;2023-04-03T15:18:37;4.97;;;3.00;;
10511;SDS011;5304;48.604;2.096;2023-04-03T15:21:22;4.17;;;3.23;;
10511;SDS011;5304;48.604;2.096;2023-04-03T15:24:06;5.17;;;2.70;;
10511;SDS011;5304;48.604;2.096;2023-04-03T15:26:52;3.00;;;2.70;;
10511;SDS011;5304;48.604;2.096;2023-04-03T15:29:37;3.50;;;2.70;;
10511;SDS011;5304;48.604;2.096;2023-04-03T15:32:22;2.80;;;2.60;;
10511;SDS011;5304;48.604;2.096;2023-04-03T15:35:07;4.00;;;3.30;;
10511;SDS011;5304;48.604;2.096;2023-04-03T15:37:53;3.53;;;3.23;;
10511;SDS011;5304;48.604;2.096;2023-04-03T15:40:38;3.23;;;2.80;;
10511;SDS011;5304;48.604;2.096;2023-04-03T15:43:22;5.43;;;3.00;;
10511;SDS011;5304;48.604;2.096;2023-04-03T15:46:07;2.83;;;2.50;;
10511;SDS011;5304;48.604;2.096;2023-04-03T15:48:51;2.80;;;2.60;;
10511;SDS011;5304;48.604;2.096;2023-04-03T15:51:35;3.17;;;2.87;;
10511;SDS011;5304;48.604;2.096;2023-04-03T15:54:20;3.13;;;2.83;;
10511;SDS011;5304;48.604;2.096;2023-04-03T15:57:04;4.57;;;2.97;;
10511;SDS011;5304;48.604;2.096;2023-04-03T15:59:49;4.97;;;3.27;;
10511;SDS011;5304;48.604;2.096;2023-04-03T16:02:34;3.63;;;3.30;;
10511;SDS011;5304;48.604;2.096;2023-04-03T16:05:18;6.23;;;3.13;;
10511;SDS011;5304;48.604;2.096;2023-04-03T16:08:03;4.40;;;3.10;;
10511;SDS011;5304;48.604;2.096;2023-04-03T16:10:50;5.10;;;3.23;;
10511;SDS011;5304;48.604;2.096;2023-04-03T16:13:34;4.47;;;3.37;;
10511;SDS011;5304;48.604;2.096;2023-04-03T16:16:19;4.03;;;2.77;;
10511;SDS011;5304;48.604;2.096;2023-04-03T16:19:04;2.97;;;2.67;;
10511;SDS011;5304;48.604;2.096;2023-04-03T16:21:49;4.47;;;3.13;;
10511;SDS011;5304;48.604;2.096;2023-04-03T16:24:34;3.33;;;2.87;;
10511;SDS011;5304;48.604;2.096;2023-04-03T16:27:19;3.87;;;2.77;;
10511;SDS011;5304;48.604;2.096;2023-04-03T16:30:05;4.37;;;2.93;;
10511;SDS011;5304;48.604;2.096;2023-04-03T16:32:51;3.30;;;3.00;;
10511;SDS011;5304;48.604;2.096;2023-04-03T16:35:36;4.37;;;2.60;;
10511;SDS011;5304;48.604;2.096;2023-04-03T16:38:20;3.83;;;2.83;;
10511;SDS011;5304;48.604;2.096;2023-04-03T16:41:06;4.03;;;2.80;;
10511;SDS011;5304;48.604;2.096;2023-04-03T16:43:50;3.70;;;2.70;;
10511;SDS011;5304;48.604;2.096;2023-04-03T16:46:34;3.57;;;2.57;;
10511;SDS011;5304;48.604;2.096;2023-04-03T16:49:19;2.97;;;2.67;;
10511;SDS011;5304;48.604;2.096;2023-04-03T16:52:04;2.83;;;2.60;;
10511;SDS011;5304;48.604;2.096;2023-04-03T16:54:49;4.80;;;3.10;;
10511;SDS011;5304;48.604;2.096;2023-04-03T16:57:38;3.87;;;2.50;;
10511;SDS011;5304;48.604;2.096;2023-04-03T17:00:22;2.93;;;2.57;;
10511;SDS011;5304;48.604;2.096;2023-04-03T17:03:07;5.30;;;2.50;;
10511;SDS011;5304;48.604;2.096;2023-04-03T17:05:51;3.23;;;2.47;;
10511;SDS011;5304;48.604;2.096;2023-04-03T17:08:36;4.10;;;2.40;;
10511;SDS011;5304;48.604;2.096;2023-04-03T17:11:20;3.30;;;3.00;;
10511;SDS011;5304;48.604;2.096;2023-04-03T17:14:05;5.00;;;2.30;;
10511;SDS011;5304;48.604;2.096;2023-04-03T17:16:49;4.33;;;2.40;;
10511;SDS011;5304;48.604;2.096;2023-04-03T17:19:35;3.70;;;2.33;;
10511;SDS011;5304;48.604;2.096;2023-04-03T17:22:21;4.73;;;2.50;;
10511;SDS011;5304;48.604;2.096;2023-04-03T17:25:06;6.80;;;2.60;;
10511;SDS011;5304;48.604;2.096;2023-04-03T17:27:54;2.80;;;2.60;;
10511;SDS011;5304;48.604;2.096;2023-04-03T17:30:38;4.97;;;2.60;;
10511;SDS011;5304;48.604;2.096;2023-04-03T17:33:23;3.63;;;2.77;;
10511;SDS011;5304;48.604;2.096;2023-04-03T17:36:08;5.30;;;2.60;;
10511;SDS011;5304;48.604;2.096;2023-04-03T17:38:53;2.83;;;2.53;;
10511;SDS011;5304;48.604;2.096;2023-04-03T17:41:37;4.50;;;2.03;;
10511;SDS011;5304;48.604;2.096;2023-04-03T17:44:22;3.90;;;2.57;;
10511;SDS011;5304;48.604;2.096;2023-04-03T17:47:06;4.03;;;2.47;;
10511;SDS011;5304;48.604;2.096;2023-04-03T17:49:52;6.27;;;2.70;;
10511;SDS011;5304;48.604;2.096;2023-04-03T17:52:36;6.60;;;1.83;;
10511;SDS011;5304;48.604;2.096;2023-04-03T17:55:21;3.60;;;2.43;;
10511;SDS011;5304;48.604;2.096;2023-04-03T17:58:06;2.50;;;1.97;;
10511;SDS011;5304;48.604;2.096;2023-04-03T18:00:50;2.50;;;2.23;;
10511;SDS011;5304;48.604;2.096;2023-04-03T18:03:36;3.27;;;1.90;;
10511;SDS011;5304;48.604;2.096;2023-04-03T18:06:23;2.50;;;2.30;;
10511;SDS011;5304;48.604;2.096;2023-04-03T18:09:13;3.40;;;2.10;;
10511;SDS011;5304;48.604;2.096;2023-04-03T18:12:01;3.13;;;1.93;;
10511;SDS011;5304;48.604;2.096;2023-04-03T18:14:48;2.60;;;2.10;;
10511;SDS011;5304;48.604;2.096;2023-04-03T18:17:32;2.40;;;2.20;;
10511;SDS011;5304;48.604;2.096;2023-04-03T18:20:17;2.77;;;1.77;;
10511;SDS011;5304;48.604;2.096;2023-04-03T18:23:02;3.00;;;2.00;;
10511;SDS011;5304;48.604;2.096;2023-04-03T18:25:46;1.80;;;1.50;;